sensor_id;sensor_type;location;lat;lon;timestamp;P1;durP1;ratioP1;P2;durP2;ratioP2
27893;SDS011;15240;50.812;4.792;2023-04-08T00:01:43;24.43;;;11.10;;
27893;SDS011;15240;50.812;4.792;2023-04-08T00:04:10;25.33;;;10.93;;
27893;SDS011;15240;50.812;4.792;2023-04-08T00:06:38;31.70;;;11.70;;
27893;SDS011;15240;50.812;4.792;2023-04-08T00:09:04;29.23;;;12.03;;
27893;SDS011;15240;50.812;4.792;2023-04-08T00:11:30;25.60;;;11.87;;
27893;SDS011;15240;50.812;4.792;2023-04-08T00:13:56;22.47;;;10.60;;
27893;SDS011;15240;50.812;4.792;2023-04-08T00:16:23;26.13;;;11.10;;
27893;SDS011;15240;50.812;4.792;2023-04-08T00:18:49;25.80;;;11.13;;
27893;SDS011;15240;50.812;4.792;2023-04-08T00:21:15;21.63;;;10.70;;
27893;SDS011;15240;50.812;4.792;2023-04-08T00:23:45;22.17;;;11.00;;
27893;SDS011;15240;50.812;4.792;2023-04-08T00:26:11;22.83;;;11.17;;
27893;SDS011;15240;50.812;4.792;2023-04-08T00:28:37;23.13;;;10.90;;
27893;SDS011;15240;50.812;4.792;2023-04-08T00:31:03;23.23;;;11.33;;
27893;SDS011;15240;50.812;4.792;2023-04-08T00:33:29;22.77;;;11.10;;
27893;SDS011;15240;50.812;4.792;2023-04-08T00:35:56;24.47;;;11.20;;
27893;SDS011;15240;50.812;4.792;2023-04-08T00:38:22;28.87;;;11.60;;
27893;SDS011;15240;50.812;4.792;2023-04-08T00:40:48;28.03;;;12.03;;
27893;SDS011;15240;50.812;4.792;2023-04-08T00:43:14;27.10;;;11.77;;
27893;SDS011;15240;50.812;4.792;2023-04-08T00:45:40;23.93;;;11.37;;
27893;SDS011;15240;50.812;4.792;2023-04-08T00:48:06;30.83;;;12.20;;
27893;SDS011;15240;50.812;4.792;2023-04-08T00:50:32;34.80;;;12.40;;
27893;SDS011;15240;50.812;4.792;2023-04-08T00:52:58;23.47;;;11.20;;
27893;SDS011;15240;50.812;4.792;2023-04-08T00:55:25;30.67;;;12.40;;
27893;SDS011;15240;50.812;4.792;2023-04-08T00:57:51;28.30;;;12.40;;
27893;SDS011;15240;50.812;4.792;2023-04-08T01:00:18;35.53;;;14.00;;
27893;SDS011;15240;50.812;4.792;2023-04-08T01:02:46;28.40;;;13.03;;
27893;SDS011;15240;50.812;4.792;2023-04-08T01:05:21;30.47;;;12.70;;
27893;SDS011;15240;50.812;4.792;2023-04-08T01:07:50;28.23;;;12.53;;
27893;SDS011;15240;50.812;4.792;2023-04-08T01:10:21;26.83;;;13.43;;
27893;SDS011;15240;50.812;4.792;2023-04-08T01:12:53;36.80;;;12.57;;
27893;SDS011;15240;50.812;4.792;2023-04-08T01:15:19;32.17;;;12.57;;
27893;SDS011;15240;50.812;4.792;2023-04-08T01:17:46;30.67;;;12.60;;
27893;SDS011;15240;50.812;4.792;2023-04-08T01:20:13;30.80;;;13.40;;
27893;SDS011;15240;50.812;4.792;2023-04-08T01:22:43;34.50;;;15.03;;
27893;SDS011;15240;50.812;4.792;2023-04-08T01:25:15;30.30;;;14.37;;
27893;SDS011;15240;50.812;4.792;2023-04-08T01:27:42;39.73;;;16.20;;
27893;SDS011;15240;50.812;4.792;2023-04-08T01:30:08;31.23;;;15.50;;
27893;SDS011;15240;50.812;4.792;2023-04-08T01:32:35;34.33;;;16.07;;
27893;SDS011;15240;50.812;4.792;2023-04-08T01:35:02;37.57;;;16.33;;
27893;SDS011;15240;50.812;4.792;2023-04-08T01:37:29;31.40;;;15.60;;
27893;SDS011;15240;50.812;4.792;2023-04-08T01:39:55;34.83;;;13.70;;
27893;SDS011;15240;50.812;4.792;2023-04-08T01:42:22;29.17;;;12.90;;
27893;SDS011;15240;50.812;4.792;2023-04-08T01:44:50;29.17;;;13.07;;
27893;SDS011;15240;50.812;4.792;2023-04-08T01:47:17;29.73;;;13.33;;
27893;SDS011;15240;50.812;4.792;2023-04-08T01:49:43;28.40;;;13.23;;
27893;SDS011;15240;50.812;4.792;2023-04-08T01:52:10;29.57;;;13.20;;
27893;SDS011;15240;50.812;4.792;2023-04-08T01:54:36;28.90;;;12.63;;
27893;SDS011;15240;50.812;4.792;2023-04-08T01:57:05;28.50;;;13.83;;
27893;SDS011;15240;50.812;4.792;2023-04-08T01:59:33;30.63;;;13.47;;
27893;SDS011;15240;50.812;4.792;2023-04-08T02:02:00;28.03;;;14.63;;
27893;SDS011;15240;50.812;4.792;2023-04-08T02:04:27;28.03;;;13.47;;
27893;SDS011;15240;50.812;4.792;2023-04-08T02:06:53;31.07;;;14.73;;
27893;SDS011;15240;50.812;4.792;2023-04-08T02:09:19;32.30;;;13.30;;
27893;SDS011;15240;50.812;4.792;2023-04-08T02:11:45;35.13;;;14.70;;
27893;SDS011;15240;50.812;4.792;2023-04-08T02:14:11;30.27;;;13.50;;
27893;SDS011;15240;50.812;4.792;2023-04-08T02:19:08;29.70;;;13.70;;
27893;SDS011;15240;50.812;4.792;2023-04-08T02:21:37;33.00;;;13.27;;
27893;SDS011;15240;50.812;4.792;2023-04-08T02:24:07;31.47;;;14.20;;
27893;SDS011;15240;50.812;4.792;2023-04-08T02:26:35;32.13;;;13.43;;
27893;SDS011;15240;50.812;4.792;2023-04-08T02:29:02;30.13;;;12.67;;
27893;SDS011;15240;50.812;4.792;2023-04-08T02:31:29;35.73;;;14.13;;
27893;SDS011;15240;50.812;4.792;2023-04-08T02:33:55;27.70;;;13.40;;
27893;SDS011;15240;50.812;4.792;2023-04-08T02:36:22;28.03;;;12.97;;
27893;SDS011;15240;50.812;4.792;2023-04-08T02:38:48;25.20;;;11.97;;
27893;SDS011;15240;50.812;4.792;2023-04-08T02:41:15;33.70;;;13.20;;
27893;SDS011;15240;50.812;4.792;2023-04-08T02:43:41;34.03;;;13.07;;
27893;SDS011;15240;50.812;4.792;2023-04-08T02:46:07;26.37;;;14.23;;
27893;SDS011;15240;50.812;4.792;2023-04-08T02:48:33;30.13;;;13.00;;
27893;SDS011;15240;50.812;4.792;2023-04-08T02:51:00;27.07;;;13.90;;
27893;SDS011;15240;50.812;4.792;2023-04-08T02:53:26;30.37;;;14.47;;
27893;SDS011;15240;50.812;4.792;2023-04-08T02:55:52;29.27;;;13.53;;
27893;SDS011;15240;50.812;4.792;2023-04-08T02:58:18;26.77;;;12.53;;
27893;SDS011;15240;50.812;4.792;2023-04-08T03:00:44;25.83;;;12.50;;
27893;SDS011;15240;50.812;4.792;2023-04-08T03:03:11;26.43;;;12.33;;
27893;SDS011;15240;50.812;4.792;2023-04-08T03:05:37;25.47;;;11.70;;
27893;SDS011;15240;50.812;4.792;2023-04-08T03:08:03;30.80;;;12.63;;
27893;SDS011;15240;50.812;4.792;2023-04-08T03:10:30;33.60;;;12.67;;
27893;SDS011;15240;50.812;4.792;2023-04-08T03:12:56;26.67;;;12.43;;
27893;SDS011;15240;50.812;4.792;2023-04-08T03:15:22;31.77;;;12.60;;
27893;SDS011;15240;50.812;4.792;2023-04-08T03:17:48;31.60;;;12.87;;
27893;SDS011;15240;50.812;4.792;2023-04-08T03:20:14;33.07;;;13.03;;
27893;SDS011;15240;50.812;4.792;2023-04-08T03:22:41;31.13;;;13.30;;
27893;SDS011;15240;50.812;4.792;2023-04-08T03:25:07;31.00;;;13.27;;
27893;SDS011;15240;50.812;4.792;2023-04-08T03:27:33;33.67;;;13.87;;
27893;SDS011;15240;50.812;4.792;2023-04-08T03:29:59;30.37;;;13.70;;
27893;SDS011;15240;50.812;4.792;2023-04-08T03:32:25;27.17;;;13.23;;
27893;SDS011;15240;50.812;4.792;2023-04-08T03:34:52;25.23;;;13.00;;
27893;SDS011;15240;50.812;4.792;2023-04-08T03:37:18;34.13;;;14.07;;
27893;SDS011;15240;50.812;4.792;2023-04-08T03:39:44;34.40;;;14.03;;
27893;SDS011;15240;50.812;4.792;2023-04-08T03:42:11;36.77;;;15.67;;
27893;SDS011;15240;50.812;4.792;2023-04-08T03:44:37;37.70;;;14.67;;
27893;SDS011;15240;50.812;4.792;2023-04-08T03:47:03;39.23;;;14.63;;
27893;SDS011;15240;50.812;4.792;2023-04-08T03:49:29;37.57;;;15.17;;
27893;SDS011;15240;50.812;4.792;2023-04-08T03:51:55;37.90;;;14.80;;
27893;SDS011;15240;50.812;4.792;2023-04-08T03:54:21;41.63;;;14.60;;
27893;SDS011;15240;50.812;4.792;2023-04-08T03:56:49;26.97;;;15.20;;
27893;SDS011;15240;50.812;4.792;2023-04-08T03:59:15;31.73;;;13.90;;
27893;SDS011;15240;50.812;4.792;2023-04-08T04:01:41;44.77;;;15.87;;
27893;SDS011;15240;50.812;4.792;2023-04-08T04:04:07;34.40;;;15.30;;
27893;SDS011;15240;50.812;4.792;2023-04-08T04:06:33;42.40;;;16.30;;
27893;SDS011;15240;50.812;4.792;2023-04-08T04:08:59;36.13;;;15.83;;
27893;SDS011;15240;50.812;4.792;2023-04-08T04:11:25;35.00;;;14.90;;
27893;SDS011;15240;50.812;4.792;2023-04-08T04:13:51;40.30;;;16.43;;
27893;SDS011;15240;50.812;4.792;2023-04-08T04:16:18;36.03;;;15.90;;
27893;SDS011;15240;50.812;4.792;2023-04-08T04:18:44;38.57;;;15.30;;
27893;SDS011;15240;50.812;4.792;2023-04-08T04:21:10;37.37;;;15.13;;
27893;SDS011;15240;50.812;4.792;2023-04-08T04:23:37;35.87;;;14.90;;
27893;SDS011;15240;50.812;4.792;2023-04-08T04:26:07;43.43;;;17.10;;
27893;SDS011;15240;50.812;4.792;2023-04-08T04:28:33;31.27;;;16.03;;
27893;SDS011;15240;50.812;4.792;2023-04-08T04:31:00;39.47;;;15.60;;
27893;SDS011;15240;50.812;4.792;2023-04-08T04:33:26;35.87;;;16.27;;
27893;SDS011;15240;50.812;4.792;2023-04-08T04:35:52;45.40;;;18.17;;
27893;SDS011;15240;50.812;4.792;2023-04-08T04:38:18;34.13;;;17.13;;
27893;SDS011;15240;50.812;4.792;2023-04-08T04:40:44;42.37;;;17.90;;
27893;SDS011;15240;50.812;4.792;2023-04-08T04:43:10;44.77;;;18.17;;
27893;SDS011;15240;50.812;4.792;2023-04-08T04:45:36;43.20;;;17.93;;
27893;SDS011;15240;50.812;4.792;2023-04-08T04:48:02;36.43;;;17.57;;
27893;SDS011;15240;50.812;4.792;2023-04-08T04:50:28;38.13;;;17.27;;
27893;SDS011;15240;50.812;4.792;2023-04-08T04:52:54;38.77;;;17.53;;
27893;SDS011;15240;50.812;4.792;2023-04-08T04:55:21;44.20;;;18.77;;
27893;SDS011;15240;50.812;4.792;2023-04-08T04:57:48;37.10;;;16.73;;
27893;SDS011;15240;50.812;4.792;2023-04-08T05:00:14;39.70;;;17.67;;
27893;SDS011;15240;50.812;4.792;2023-04-08T05:02:41;38.53;;;17.03;;
27893;SDS011;15240;50.812;4.792;2023-04-08T05:05:07;47.20;;;17.37;;
27893;SDS011;15240;50.812;4.792;2023-04-08T05:07:36;37.30;;;16.83;;
27893;SDS011;15240;50.812;4.792;2023-04-08T05:10:03;34.17;;;16.50;;
27893;SDS011;15240;50.812;4.792;2023-04-08T05:12:29;48.73;;;17.30;;
27893;SDS011;15240;50.812;4.792;2023-04-08T05:14:56;42.83;;;17.17;;
27893;SDS011;15240;50.812;4.792;2023-04-08T05:17:23;43.97;;;18.90;;
27893;SDS011;15240;50.812;4.792;2023-04-08T05:19:49;41.90;;;17.63;;
27893;SDS011;15240;50.812;4.792;2023-04-08T05:22:17;51.57;;;18.60;;
27893;SDS011;15240;50.812;4.792;2023-04-08T05:24:43;42.70;;;18.97;;
27893;SDS011;15240;50.812;4.792;2023-04-08T05:27:09;42.53;;;19.40;;
27893;SDS011;15240;50.812;4.792;2023-04-08T05:29:35;46.90;;;20.37;;
27893;SDS011;15240;50.812;4.792;2023-04-08T05:32:01;47.13;;;19.70;;
27893;SDS011;15240;50.812;4.792;2023-04-08T05:34:30;43.97;;;20.97;;
27893;SDS011;15240;50.812;4.792;2023-04-08T05:36:56;42.13;;;19.43;;
27893;SDS011;15240;50.812;4.792;2023-04-08T05:39:22;45.73;;;18.50;;
27893;SDS011;15240;50.812;4.792;2023-04-08T05:41:48;39.57;;;18.43;;
27893;SDS011;15240;50.812;4.792;2023-04-08T05:44:15;54.43;;;20.40;;
27893;SDS011;15240;50.812;4.792;2023-04-08T05:46:41;46.00;;;20.37;;
27893;SDS011;15240;50.812;4.792;2023-04-08T05:49:07;49.13;;;21.87;;
27893;SDS011;15240;50.812;4.792;2023-04-08T05:51:33;44.60;;;21.03;;
27893;SDS011;15240;50.812;4.792;2023-04-08T05:53:59;48.97;;;21.37;;
27893;SDS011;15240;50.812;4.792;2023-04-08T05:56:25;50.73;;;21.67;;
27893;SDS011;15240;50.812;4.792;2023-04-08T05:58:51;43.63;;;20.40;;
27893;SDS011;15240;50.812;4.792;2023-04-08T06:01:17;45.47;;;21.70;;
27893;SDS011;15240;50.812;4.792;2023-04-08T06:03:43;54.40;;;23.57;;
27893;SDS011;15240;50.812;4.792;2023-04-08T06:06:10;53.57;;;21.67;;
27893;SDS011;15240;50.812;4.792;2023-04-08T06:08:36;48.70;;;22.80;;
27893;SDS011;15240;50.812;4.792;2023-04-08T06:11:02;48.47;;;21.93;;
27893;SDS011;15240;50.812;4.792;2023-04-08T06:13:29;47.67;;;22.17;;
27893;SDS011;15240;50.812;4.792;2023-04-08T06:15:56;46.93;;;22.13;;
27893;SDS011;15240;50.812;4.792;2023-04-08T06:18:22;47.17;;;21.90;;
27893;SDS011;15240;50.812;4.792;2023-04-08T06:20:48;49.90;;;21.80;;
27893;SDS011;15240;50.812;4.792;2023-04-08T06:23:15;48.10;;;22.10;;
27893;SDS011;15240;50.812;4.792;2023-04-08T06:25:41;48.43;;;22.30;;
27893;SDS011;15240;50.812;4.792;2023-04-08T06:28:07;58.93;;;22.70;;
27893;SDS011;15240;50.812;4.792;2023-04-08T06:30:33;53.70;;;22.53;;
27893;SDS011;15240;50.812;4.792;2023-04-08T06:32:59;48.00;;;22.13;;
27893;SDS011;15240;50.812;4.792;2023-04-08T06:35:25;51.13;;;22.93;;
27893;SDS011;15240;50.812;4.792;2023-04-08T06:37:51;51.97;;;23.20;;
27893;SDS011;15240;50.812;4.792;2023-04-08T06:40:17;49.87;;;23.40;;
27893;SDS011;15240;50.812;4.792;2023-04-08T06:42:43;47.03;;;21.30;;
27893;SDS011;15240;50.812;4.792;2023-04-08T06:45:09;48.80;;;22.23;;
27893;SDS011;15240;50.812;4.792;2023-04-08T06:47:36;44.83;;;21.83;;
27893;SDS011;15240;50.812;4.792;2023-04-08T06:50:02;54.70;;;24.80;;
27893;SDS011;15240;50.812;4.792;2023-04-08T06:52:28;50.60;;;26.30;;
27893;SDS011;15240;50.812;4.792;2023-04-08T06:54:55;54.00;;;24.97;;
27893;SDS011;15240;50.812;4.792;2023-04-08T06:57:21;51.40;;;24.47;;
27893;SDS011;15240;50.812;4.792;2023-04-08T06:59:49;48.07;;;23.27;;
27893;SDS011;15240;50.812;4.792;2023-04-08T07:02:17;55.80;;;26.50;;
27893;SDS011;15240;50.812;4.792;2023-04-08T07:04:43;64.60;;;29.53;;
27893;SDS011;15240;50.812;4.792;2023-04-08T07:07:09;57.90;;;26.70;;
27893;SDS011;15240;50.812;4.792;2023-04-08T07:09:35;54.37;;;25.50;;
27893;SDS011;15240;50.812;4.792;2023-04-08T07:12:02;45.90;;;23.03;;
27893;SDS011;15240;50.812;4.792;2023-04-08T07:14:28;50.27;;;23.20;;
27893;SDS011;15240;50.812;4.792;2023-04-08T07:16:55;44.80;;;23.10;;
27893;SDS011;15240;50.812;4.792;2023-04-08T07:19:21;45.93;;;25.70;;
27893;SDS011;15240;50.812;4.792;2023-04-08T07:21:48;46.50;;;23.17;;
27893;SDS011;15240;50.812;4.792;2023-04-08T07:24:14;43.40;;;21.13;;
27893;SDS011;15240;50.812;4.792;2023-04-08T07:26:40;34.23;;;18.03;;
27893;SDS011;15240;50.812;4.792;2023-04-08T07:29:06;31.80;;;17.97;;
27893;SDS011;15240;50.812;4.792;2023-04-08T07:31:32;36.20;;;18.87;;
27893;SDS011;15240;50.812;4.792;2023-04-08T07:33:58;36.90;;;21.13;;
27893;SDS011;15240;50.812;4.792;2023-04-08T07:36:24;37.13;;;19.27;;
27893;SDS011;15240;50.812;4.792;2023-04-08T07:38:50;26.33;;;15.60;;
27893;SDS011;15240;50.812;4.792;2023-04-08T07:41:16;34.97;;;19.47;;
27893;SDS011;15240;50.812;4.792;2023-04-08T07:43:46;27.67;;;15.00;;
27893;SDS011;15240;50.812;4.792;2023-04-08T07:46:31;29.93;;;15.80;;
27893;SDS011;15240;50.812;4.792;2023-04-08T07:49:01;27.03;;;14.57;;
27893;SDS011;15240;50.812;4.792;2023-04-08T07:51:27;23.40;;;13.00;;
27893;SDS011;15240;50.812;4.792;2023-04-08T07:53:54;20.73;;;13.53;;
27893;SDS011;15240;50.812;4.792;2023-04-08T07:56:20;24.37;;;13.27;;
27893;SDS011;15240;50.812;4.792;2023-04-08T07:58:46;20.50;;;12.33;;
27893;SDS011;15240;50.812;4.792;2023-04-08T08:01:18;25.43;;;12.63;;
27893;SDS011;15240;50.812;4.792;2023-04-08T08:03:45;21.23;;;13.43;;
27893;SDS011;15240;50.812;4.792;2023-04-08T08:06:11;24.30;;;14.53;;
27893;SDS011;15240;50.812;4.792;2023-04-08T08:08:37;23.07;;;12.83;;
27893;SDS011;15240;50.812;4.792;2023-04-08T08:11:03;23.67;;;14.10;;
27893;SDS011;15240;50.812;4.792;2023-04-08T08:13:29;39.13;;;23.50;;
27893;SDS011;15240;50.812;4.792;2023-04-08T08:15:59;21.60;;;12.90;;
27893;SDS011;15240;50.812;4.792;2023-04-08T08:18:27;21.67;;;11.50;;
27893;SDS011;15240;50.812;4.792;2023-04-08T08:20:53;22.47;;;12.90;;
27893;SDS011;15240;50.812;4.792;2023-04-08T08:23:19;26.63;;;16.77;;
27893;SDS011;15240;50.812;4.792;2023-04-08T08:25:46;24.77;;;15.73;;
27893;SDS011;15240;50.812;4.792;2023-04-08T08:28:12;46.00;;;27.20;;
27893;SDS011;15240;50.812;4.792;2023-04-08T08:30:39;39.97;;;22.97;;
27893;SDS011;15240;50.812;4.792;2023-04-08T08:33:06;29.60;;;18.27;;
27893;SDS011;15240;50.812;4.792;2023-04-08T08:35:32;33.30;;;19.17;;
27893;SDS011;15240;50.812;4.792;2023-04-08T08:38:07;22.53;;;11.10;;
27893;SDS011;15240;50.812;4.792;2023-04-08T08:40:33;26.33;;;14.73;;
27893;SDS011;15240;50.812;4.792;2023-04-08T08:43:08;30.90;;;19.13;;
27893;SDS011;15240;50.812;4.792;2023-04-08T08:46:09;24.23;;;15.77;;
27893;SDS011;15240;50.812;4.792;2023-04-08T08:48:55;26.80;;;15.13;;
27893;SDS011;15240;50.812;4.792;2023-04-08T08:51:25;20.07;;;11.57;;
27893;SDS011;15240;50.812;4.792;2023-04-08T08:54:23;18.57;;;10.93;;
27893;SDS011;15240;50.812;4.792;2023-04-08T08:57:18;19.87;;;10.50;;
27893;SDS011;15240;50.812;4.792;2023-04-08T08:59:45;19.33;;;10.77;;
27893;SDS011;15240;50.812;4.792;2023-04-08T09:02:35;21.80;;;13.13;;
27893;SDS011;15240;50.812;4.792;2023-04-08T09:05:08;21.23;;;11.83;;
27893;SDS011;15240;50.812;4.792;2023-04-08T09:07:38;20.40;;;11.23;;
27893;SDS011;15240;50.812;4.792;2023-04-08T09:10:44;16.20;;;10.07;;
27893;SDS011;15240;50.812;4.792;2023-04-08T09:13:35;14.50;;;8.83;;
27893;SDS011;15240;50.812;4.792;2023-04-08T09:16:42;15.57;;;9.10;;
27893;SDS011;15240;50.812;4.792;2023-04-08T09:23:00;14.03;;;8.17;;
27893;SDS011;15240;50.812;4.792;2023-04-08T09:29:18;11.20;;;7.77;;
27893;SDS011;15240;50.812;4.792;2023-04-08T09:32:48;12.13;;;7.13;;
27893;SDS011;15240;50.812;4.792;2023-04-08T09:35:57;14.50;;;8.17;;
27893;SDS011;15240;50.812;4.792;2023-04-08T09:39:10;10.57;;;6.77;;
27893;SDS011;15240;50.812;4.792;2023-04-08T09:42:25;16.77;;;10.07;;
27893;SDS011;15240;50.812;4.792;2023-04-08T09:45:33;10.53;;;7.37;;
27893;SDS011;15240;50.812;4.792;2023-04-08T10:04:25;12.50;;;8.57;;
27893;SDS011;15240;50.812;4.792;2023-04-08T10:07:56;13.47;;;8.80;;
27893;SDS011;15240;50.812;4.792;2023-04-08T10:11:09;13.60;;;9.13;;
27893;SDS011;15240;50.812;4.792;2023-04-08T10:14:17;17.03;;;9.40;;
27893;SDS011;15240;50.812;4.792;2023-04-08T10:17:25;18.03;;;10.63;;
27893;SDS011;15240;50.812;4.792;2023-04-08T10:20:44;13.77;;;9.53;;
27893;SDS011;15240;50.812;4.792;2023-04-08T10:32:56;12.80;;;8.23;;
27893;SDS011;15240;50.812;4.792;2023-04-08T10:48:26;9.77;;;6.20;;
27893;SDS011;15240;50.812;4.792;2023-04-08T11:10:12;13.20;;;7.63;;
27893;SDS011;15240;50.812;4.792;2023-04-08T11:13:07;12.77;;;8.43;;
27893;SDS011;15240;50.812;4.792;2023-04-08T11:15:55;12.20;;;8.77;;
27893;SDS011;15240;50.812;4.792;2023-04-08T11:22:22;13.13;;;8.80;;
27893;SDS011;15240;50.812;4.792;2023-04-08T11:25:37;20.63;;;12.27;;
27893;SDS011;15240;50.812;4.792;2023-04-08T11:28:51;16.03;;;10.77;;
27893;SDS011;15240;50.812;4.792;2023-04-08T11:32:00;19.50;;;11.37;;
27893;SDS011;15240;50.812;4.792;2023-04-08T11:38:13;20.67;;;11.17;;
27893;SDS011;15240;50.812;4.792;2023-04-08T11:47:33;17.53;;;12.07;;
27893;SDS011;15240;50.812;4.792;2023-04-08T11:50:40;21.73;;;12.80;;
27893;SDS011;15240;50.812;4.792;2023-04-08T12:15:22;26.33;;;16.43;;
27893;SDS011;15240;50.812;4.792;2023-04-08T12:17:48;22.93;;;16.37;;
27893;SDS011;15240;50.812;4.792;2023-04-08T12:20:15;26.10;;;16.67;;
27893;SDS011;15240;50.812;4.792;2023-04-08T12:22:41;22.90;;;15.60;;
27893;SDS011;15240;50.812;4.792;2023-04-08T12:25:08;25.47;;;17.23;;
27893;SDS011;15240;50.812;4.792;2023-04-08T12:27:34;28.10;;;18.50;;
27893;SDS011;15240;50.812;4.792;2023-04-08T12:30:00;27.77;;;18.40;;
27893;SDS011;15240;50.812;4.792;2023-04-08T12:32:27;28.03;;;18.53;;
27893;SDS011;15240;50.812;4.792;2023-04-08T12:34:53;26.17;;;18.07;;
27893;SDS011;15240;50.812;4.792;2023-04-08T12:37:19;25.10;;;17.57;;
27893;SDS011;15240;50.812;4.792;2023-04-08T12:39:46;27.27;;;18.20;;
27893;SDS011;15240;50.812;4.792;2023-04-08T12:42:12;26.07;;;18.33;;
27893;SDS011;15240;50.812;4.792;2023-04-08T12:44:38;27.83;;;18.97;;
27893;SDS011;15240;50.812;4.792;2023-04-08T12:47:04;28.10;;;18.57;;
27893;SDS011;15240;50.812;4.792;2023-04-08T12:49:30;26.37;;;17.87;;
27893;SDS011;15240;50.812;4.792;2023-04-08T12:51:57;26.13;;;18.50;;
27893;SDS011;15240;50.812;4.792;2023-04-08T12:54:23;39.07;;;19.83;;
27893;SDS011;15240;50.812;4.792;2023-04-08T12:56:49;27.70;;;19.03;;
27893;SDS011;15240;50.812;4.792;2023-04-08T12:59:15;30.53;;;21.33;;
27893;SDS011;15240;50.812;4.792;2023-04-08T13:01:41;29.83;;;20.57;;
27893;SDS011;15240;50.812;4.792;2023-04-08T13:04:08;28.73;;;20.73;;
27893;SDS011;15240;50.812;4.792;2023-04-08T13:06:34;31.30;;;20.50;;
27893;SDS011;15240;50.812;4.792;2023-04-08T13:09:00;30.37;;;20.57;;
27893;SDS011;15240;50.812;4.792;2023-04-08T13:11:26;27.93;;;19.37;;
27893;SDS011;15240;50.812;4.792;2023-04-08T13:13:52;28.13;;;18.73;;
27893;SDS011;15240;50.812;4.792;2023-04-08T13:16:18;26.90;;;19.70;;
27893;SDS011;15240;50.812;4.792;2023-04-08T13:18:45;27.53;;;19.00;;
27893;SDS011;15240;50.812;4.792;2023-04-08T13:21:11;34.07;;;21.87;;
27893;SDS011;15240;50.812;4.792;2023-04-08T13:23:37;32.47;;;21.83;;
27893;SDS011;15240;50.812;4.792;2023-04-08T13:26:03;30.40;;;21.20;;
27893;SDS011;15240;50.812;4.792;2023-04-08T13:28:30;32.40;;;22.10;;
27893;SDS011;15240;50.812;4.792;2023-04-08T13:30:56;30.03;;;20.73;;
27893;SDS011;15240;50.812;4.792;2023-04-08T13:33:22;30.07;;;21.07;;
27893;SDS011;15240;50.812;4.792;2023-04-08T13:35:48;32.50;;;20.67;;
27893;SDS011;15240;50.812;4.792;2023-04-08T13:38:14;30.63;;;20.53;;
27893;SDS011;15240;50.812;4.792;2023-04-08T13:40:41;31.37;;;20.90;;
27893;SDS011;15240;50.812;4.792;2023-04-08T13:43:07;28.83;;;20.83;;
27893;SDS011;15240;50.812;4.792;2023-04-08T13:45:34;29.97;;;21.53;;
27893;SDS011;15240;50.812;4.792;2023-04-08T13:48:00;31.70;;;20.50;;
27893;SDS011;15240;50.812;4.792;2023-04-08T13:50:26;31.27;;;21.87;;
27893;SDS011;15240;50.812;4.792;2023-04-08T13:52:52;31.90;;;21.77;;
27893;SDS011;15240;50.812;4.792;2023-04-08T13:55:18;32.40;;;21.67;;
27893;SDS011;15240;50.812;4.792;2023-04-08T13:57:45;27.00;;;19.77;;
27893;SDS011;15240;50.812;4.792;2023-04-08T14:00:11;30.10;;;20.40;;
27893;SDS011;15240;50.812;4.792;2023-04-08T14:02:37;28.87;;;20.23;;
27893;SDS011;15240;50.812;4.792;2023-04-08T14:05:03;30.07;;;21.50;;
27893;SDS011;15240;50.812;4.792;2023-04-08T14:07:29;34.90;;;21.90;;
27893;SDS011;15240;50.812;4.792;2023-04-08T14:09:55;30.57;;;20.97;;
27893;SDS011;15240;50.812;4.792;2023-04-08T14:12:22;31.17;;;20.97;;
27893;SDS011;15240;50.812;4.792;2023-04-08T14:14:48;28.23;;;19.87;;
27893;SDS011;15240;50.812;4.792;2023-04-08T14:17:14;27.93;;;20.03;;
27893;SDS011;15240;50.812;4.792;2023-04-08T14:19:40;28.23;;;20.07;;
27893;SDS011;15240;50.812;4.792;2023-04-08T14:22:06;24.90;;;18.30;;
27893;SDS011;15240;50.812;4.792;2023-04-08T14:24:34;24.90;;;19.13;;
27893;SDS011;15240;50.812;4.792;2023-04-08T14:27:00;27.17;;;19.43;;
27893;SDS011;15240;50.812;4.792;2023-04-08T14:29:27;29.60;;;19.83;;
27893;SDS011;15240;50.812;4.792;2023-04-08T14:31:53;27.37;;;20.33;;
27893;SDS011;15240;50.812;4.792;2023-04-08T14:34:19;28.57;;;20.80;;
27893;SDS011;15240;50.812;4.792;2023-04-08T14:36:45;29.10;;;20.60;;
27893;SDS011;15240;50.812;4.792;2023-04-08T14:39:11;45.23;;;29.17;;
27893;SDS011;15240;50.812;4.792;2023-04-08T14:41:37;29.77;;;21.60;;
27893;SDS011;15240;50.812;4.792;2023-04-08T14:44:03;24.60;;;18.00;;
27893;SDS011;15240;50.812;4.792;2023-04-08T14:46:29;23.87;;;17.70;;
27893;SDS011;15240;50.812;4.792;2023-04-08T14:48:56;25.93;;;18.37;;
27893;SDS011;15240;50.812;4.792;2023-04-08T14:51:22;23.80;;;17.30;;
27893;SDS011;15240;50.812;4.792;2023-04-08T14:53:49;23.93;;;18.10;;
27893;SDS011;15240;50.812;4.792;2023-04-08T14:56:15;27.60;;;20.20;;
27893;SDS011;15240;50.812;4.792;2023-04-08T14:58:41;24.27;;;17.13;;
27893;SDS011;15240;50.812;4.792;2023-04-08T15:01:07;24.67;;;18.10;;
27893;SDS011;15240;50.812;4.792;2023-04-08T15:03:35;23.20;;;18.00;;
27893;SDS011;15240;50.812;4.792;2023-04-08T15:06:01;22.40;;;17.10;;
27893;SDS011;15240;50.812;4.792;2023-04-08T15:08:27;25.60;;;18.67;;
27893;SDS011;15240;50.812;4.792;2023-04-08T15:10:53;23.83;;;17.80;;
27893;SDS011;15240;50.812;4.792;2023-04-08T15:13:19;25.43;;;19.17;;
27893;SDS011;15240;50.812;4.792;2023-04-08T15:15:45;26.33;;;20.40;;
27893;SDS011;15240;50.812;4.792;2023-04-08T15:18:11;24.13;;;17.97;;
27893;SDS011;15240;50.812;4.792;2023-04-08T15:20:37;25.70;;;18.53;;
27893;SDS011;15240;50.812;4.792;2023-04-08T15:23:03;22.97;;;18.07;;
27893;SDS011;15240;50.812;4.792;2023-04-08T15:25:30;24.93;;;19.20;;
27893;SDS011;15240;50.812;4.792;2023-04-08T15:27:56;23.17;;;17.60;;
27893;SDS011;15240;50.812;4.792;2023-04-08T15:30:22;24.03;;;18.33;;
27893;SDS011;15240;50.812;4.792;2023-04-08T15:32:50;25.30;;;18.70;;
27893;SDS011;15240;50.812;4.792;2023-04-08T15:35:16;21.37;;;16.90;;
27893;SDS011;15240;50.812;4.792;2023-04-08T15:37:42;23.60;;;17.50;;
27893;SDS011;15240;50.812;4.792;2023-04-08T15:40:08;28.83;;;20.37;;
27893;SDS011;15240;50.812;4.792;2023-04-08T15:42:34;23.33;;;17.67;;
27893;SDS011;15240;50.812;4.792;2023-04-08T15:45:02;22.47;;;18.47;;
27893;SDS011;15240;50.812;4.792;2023-04-08T15:47:29;23.27;;;18.70;;
27893;SDS011;15240;50.812;4.792;2023-04-08T15:49:55;27.80;;;20.80;;
27893;SDS011;15240;50.812;4.792;2023-04-08T15:52:21;27.37;;;19.50;;
27893;SDS011;15240;50.812;4.792;2023-04-08T15:54:47;23.13;;;17.60;;
27893;SDS011;15240;50.812;4.792;2023-04-08T15:57:13;30.70;;;21.33;;
27893;SDS011;15240;50.812;4.792;2023-04-08T15:59:39;29.17;;;22.03;;
27893;SDS011;15240;50.812;4.792;2023-04-08T16:02:05;36.50;;;27.00;;
27893;SDS011;15240;50.812;4.792;2023-04-08T16:04:31;25.73;;;19.37;;
27893;SDS011;15240;50.812;4.792;2023-04-08T16:06:57;27.30;;;21.70;;
27893;SDS011;15240;50.812;4.792;2023-04-08T16:09:23;25.77;;;20.03;;
27893;SDS011;15240;50.812;4.792;2023-04-08T16:11:51;22.53;;;19.03;;
27893;SDS011;15240;50.812;4.792;2023-04-08T16:14:17;28.50;;;21.10;;
27893;SDS011;15240;50.812;4.792;2023-04-08T16:16:44;30.93;;;23.27;;
27893;SDS011;15240;50.812;4.792;2023-04-08T16:19:11;22.63;;;18.90;;
27893;SDS011;15240;50.812;4.792;2023-04-08T16:21:37;23.27;;;18.50;;